sensor_id;sensor_type;location;lat;lon;timestamp;P1;durP1;ratioP1;P2;durP2;ratioP2
73919;SDS011;62266;53.348;-1.496;2023-08-12T00:00:37;9.93;;;3.00;;
73919;SDS011;62266;53.348;-1.496;2023-08-12T00:03:20;9.38;;;3.03;;
73919;SDS011;62266;53.348;-1.496;2023-08-12T00:06:05;13.85;;;2.80;;
73919;SDS011;62266;53.348;-1.496;2023-08-12T00:08:49;10.17;;;3.00;;
73919;SDS011;62266;53.348;-1.496;2023-08-12T00:11:36;9.40;;;2.20;;
73919;SDS011;62266;53.348;-1.496;2023-08-12T00:14:21;9.45;;;2.65;;
73919;SDS011;62266;53.348;-1.496;2023-08-12T00:17:05;10.65;;;2.80;;
73919;SDS011;62266;53.348;-1.496;2023-08-12T00:19:49;9.63;;;2.90;;
73919;SDS011;62266;53.348;-1.496;2023-08-12T00:22:33;12.53;;;2.77;;
73919;SDS011;62266;53.348;-1.496;2023-08-12T00:25:17;10.68;;;2.25;;
73919;SDS011;62266;53.348;-1.496;2023-08-12T00:28:01;11.73;;;2.85;;
73919;SDS011;62266;53.348;-1.496;2023-08-12T00:30:47;10.77;;;2.90;;
73919;SDS011;62266;53.348;-1.496;2023-08-12T00:33:31;11.40;;;2.63;;
73919;SDS011;62266;53.348;-1.496;2023-08-12T00:36:15;8.77;;;2.77;;
73919;SDS011;62266;53.348;-1.496;2023-08-12T00:39:00;12.43;;;2.30;;
73919;SDS011;62266;53.348;-1.496;2023-08-12T00:41:44;9.23;;;2.35;;
73919;SDS011;62266;53.348;-1.496;2023-08-12T00:44:28;9.20;;;2.20;;
73919;SDS011;62266;53.348;-1.496;2023-08-12T00:47:12;11.20;;;2.70;;
73919;SDS011;62266;53.348;-1.496;2023-08-12T00:49:56;10.77;;;2.67;;
73919;SDS011;62266;53.348;-1.496;2023-08-12T00:52:42;8.35;;;2.40;;
73919;SDS011;62266;53.348;-1.496;2023-08-12T00:55:26;9.65;;;2.30;;
73919;SDS011;62266;53.348;-1.496;2023-08-12T00:58:10;12.02;;;2.40;;
73919;SDS011;62266;53.348;-1.496;2023-08-12T01:00:54;8.50;;;2.00;;
73919;SDS011;62266;53.348;-1.496;2023-08-12T01:03:39;9.70;;;2.03;;
73919;SDS011;62266;53.348;-1.496;2023-08-12T01:06:23;8.15;;;2.53;;
73919;SDS011;62266;53.348;-1.496;2023-08-12T01:09:07;9.98;;;2.58;;
73919;SDS011;62266;53.348;-1.496;2023-08-12T01:15:08;10.45;;;2.45;;
73919;SDS011;62266;53.348;-1.496;2023-08-12T01:17:55;12.30;;;2.40;;
73919;SDS011;62266;53.348;-1.496;2023-08-12T01:20:39;8.82;;;2.47;;
73919;SDS011;62266;53.348;-1.496;2023-08-12T01:23:23;12.50;;;2.72;;
73919;SDS011;62266;53.348;-1.496;2023-08-12T01:26:07;9.40;;;2.33;;
73919;SDS011;62266;53.348;-1.496;2023-08-12T01:28:51;10.82;;;2.35;;
73919;SDS011;62266;53.348;-1.496;2023-08-12T01:31:38;12.47;;;2.87;;
73919;SDS011;62266;53.348;-1.496;2023-08-12T01:37:32;9.70;;;2.97;;
73919;SDS011;62266;53.348;-1.496;2023-08-12T01:40:16;10.55;;;2.88;;
73919;SDS011;62266;53.348;-1.496;2023-08-12T01:43:02;11.45;;;2.38;;
73919;SDS011;62266;53.348;-1.496;2023-08-12T01:45:47;12.90;;;2.23;;
73919;SDS011;62266;53.348;-1.496;2023-08-12T01:48:31;13.25;;;2.20;;
73919;SDS011;62266;53.348;-1.496;2023-08-12T01:51:15;10.43;;;2.33;;
73919;SDS011;62266;53.348;-1.496;2023-08-12T01:53:59;12.35;;;2.75;;
73919;SDS011;62266;53.348;-1.496;2023-08-12T01:56:43;10.40;;;2.97;;
73919;SDS011;62266;53.348;-1.496;2023-08-12T01:59:26;10.87;;;2.70;;
73919;SDS011;62266;53.348;-1.496;2023-08-12T02:02:10;9.32;;;2.22;;
73919;SDS011;62266;53.348;-1.496;2023-08-12T02:04:55;10.82;;;2.55;;
73919;SDS011;62266;53.348;-1.496;2023-08-12T02:07:39;10.25;;;2.08;;
73919;SDS011;62266;53.348;-1.496;2023-08-12T02:10:22;11.35;;;2.92;;
73919;SDS011;62266;53.348;-1.496;2023-08-12T02:13:07;13.63;;;2.53;;
73919;SDS011;62266;53.348;-1.496;2023-08-12T02:15:50;11.50;;;2.70;;
73919;SDS011;62266;53.348;-1.496;2023-08-12T02:18:35;10.88;;;2.47;;
73919;SDS011;62266;53.348;-1.496;2023-08-12T02:21:19;11.35;;;2.45;;
73919;SDS011;62266;53.348;-1.496;2023-08-12T02:24:03;12.10;;;2.95;;
73919;SDS011;62266;53.348;-1.496;2023-08-12T02:26:47;13.13;;;3.30;;
73919;SDS011;62266;53.348;-1.496;2023-08-12T02:29:31;14.13;;;3.13;;
73919;SDS011;62266;53.348;-1.496;2023-08-12T02:32:16;12.63;;;3.35;;
73919;SDS011;62266;53.348;-1.496;2023-08-12T02:35:00;10.80;;;3.22;;
73919;SDS011;62266;53.348;-1.496;2023-08-12T02:37:44;11.55;;;3.45;;
73919;SDS011;62266;53.348;-1.496;2023-08-12T02:40:28;9.53;;;3.23;;
73919;SDS011;62266;53.348;-1.496;2023-08-12T02:43:12;17.98;;;3.67;;
73919;SDS011;62266;53.348;-1.496;2023-08-12T02:45:56;14.05;;;3.88;;
73919;SDS011;62266;53.348;-1.496;2023-08-12T02:48:40;13.52;;;3.33;;
73919;SDS011;62266;53.348;-1.496;2023-08-12T02:51:24;12.43;;;3.65;;
73919;SDS011;62266;53.348;-1.496;2023-08-12T02:54:09;11.93;;;3.40;;
73919;SDS011;62266;53.348;-1.496;2023-08-12T02:56:53;11.40;;;3.40;;
73919;SDS011;62266;53.348;-1.496;2023-08-12T02:59:37;13.43;;;3.42;;
73919;SDS011;62266;53.348;-1.496;2023-08-12T03:02:20;13.35;;;4.20;;
73919;SDS011;62266;53.348;-1.496;2023-08-12T03:05:05;11.75;;;3.40;;
73919;SDS011;62266;53.348;-1.496;2023-08-12T03:07:49;13.87;;;3.77;;
73919;SDS011;62266;53.348;-1.496;2023-08-12T03:10:35;11.75;;;3.88;;
73919;SDS011;62266;53.348;-1.496;2023-08-12T03:13:19;12.80;;;4.40;;
73919;SDS011;62266;53.348;-1.496;2023-08-12T03:16:04;12.73;;;3.92;;
73919;SDS011;62266;53.348;-1.496;2023-08-12T03:18:48;12.63;;;4.28;;
73919;SDS011;62266;53.348;-1.496;2023-08-12T03:21:31;11.93;;;4.30;;
73919;SDS011;62266;53.348;-1.496;2023-08-12T03:24:15;16.08;;;4.32;;
73919;SDS011;62266;53.348;-1.496;2023-08-12T03:26:59;12.85;;;4.50;;
73919;SDS011;62266;53.348;-1.496;2023-08-12T03:29:43;14.82;;;4.70;;
73919;SDS011;62266;53.348;-1.496;2023-08-12T03:32:27;12.18;;;4.45;;
73919;SDS011;62266;53.348;-1.496;2023-08-12T03:35:11;15.13;;;4.73;;
73919;SDS011;62266;53.348;-1.496;2023-08-12T03:37:55;19.48;;;5.68;;
73919;SDS011;62266;53.348;-1.496;2023-08-12T03:40:40;11.50;;;5.05;;
73919;SDS011;62266;53.348;-1.496;2023-08-12T03:43:24;18.80;;;4.78;;
73919;SDS011;62266;53.348;-1.496;2023-08-12T03:46:08;14.85;;;4.78;;
73919;SDS011;62266;53.348;-1.496;2023-08-12T03:48:53;12.43;;;4.30;;
73919;SDS011;62266;53.348;-1.496;2023-08-12T03:51:37;12.23;;;4.40;;
73919;SDS011;62266;53.348;-1.496;2023-08-12T03:54:21;13.68;;;4.25;;
73919;SDS011;62266;53.348;-1.496;2023-08-12T03:57:04;16.85;;;5.03;;
73919;SDS011;62266;53.348;-1.496;2023-08-12T03:59:48;16.35;;;4.30;;
73919;SDS011;62266;53.348;-1.496;2023-08-12T04:02:32;11.67;;;4.50;;
73919;SDS011;62266;53.348;-1.496;2023-08-12T04:05:16;13.13;;;4.68;;
73919;SDS011;62266;53.348;-1.496;2023-08-12T04:08:00;13.25;;;4.32;;
73919;SDS011;62266;53.348;-1.496;2023-08-12T04:10:45;16.58;;;4.95;;
73919;SDS011;62266;53.348;-1.496;2023-08-12T04:13:29;12.90;;;3.90;;
73919;SDS011;62266;53.348;-1.496;2023-08-12T04:16:13;12.20;;;4.40;;
73919;SDS011;62266;53.348;-1.496;2023-08-12T04:18:57;17.63;;;4.47;;
73919;SDS011;62266;53.348;-1.496;2023-08-12T04:21:41;13.75;;;4.32;;
73919;SDS011;62266;53.348;-1.496;2023-08-12T04:24:29;16.45;;;4.80;;
73919;SDS011;62266;53.348;-1.496;2023-08-12T04:27:13;14.05;;;4.45;;
73919;SDS011;62266;53.348;-1.496;2023-08-12T04:29:59;14.03;;;4.30;;
73919;SDS011;62266;53.348;-1.496;2023-08-12T04:32:43;11.68;;;4.40;;
73919;SDS011;62266;53.348;-1.496;2023-08-12T04:35:27;15.40;;;4.63;;
73919;SDS011;62266;53.348;-1.496;2023-08-12T04:38:15;12.70;;;4.80;;
73919;SDS011;62266;53.348;-1.496;2023-08-12T04:40:59;10.35;;;4.40;;
73919;SDS011;62266;53.348;-1.496;2023-08-12T04:43:43;15.03;;;4.63;;
73919;SDS011;62266;53.348;-1.496;2023-08-12T04:46:27;11.38;;;4.13;;
73919;SDS011;62266;53.348;-1.496;2023-08-12T04:49:11;12.77;;;4.32;;
73919;SDS011;62266;53.348;-1.496;2023-08-12T04:51:55;17.88;;;4.40;;
73919;SDS011;62266;53.348;-1.496;2023-08-12T04:54:39;13.52;;;4.80;;
73919;SDS011;62266;53.348;-1.496;2023-08-12T04:57:23;10.27;;;3.47;;
73919;SDS011;62266;53.348;-1.496;2023-08-12T05:00:07;12.68;;;3.50;;
73919;SDS011;62266;53.348;-1.496;2023-08-12T05:02:52;19.80;;;4.65;;
73919;SDS011;62266;53.348;-1.496;2023-08-12T05:05:36;9.90;;;4.70;;
73919;SDS011;62266;53.348;-1.496;2023-08-12T05:08:20;14.35;;;3.90;;
73919;SDS011;62266;53.348;-1.496;2023-08-12T05:11:04;13.50;;;3.97;;
73919;SDS011;62266;53.348;-1.496;2023-08-12T05:13:49;16.75;;;4.57;;
73919;SDS011;62266;53.348;-1.496;2023-08-12T05:16:32;13.13;;;3.60;;
73919;SDS011;62266;53.348;-1.496;2023-08-12T05:19:16;15.43;;;4.10;;
73919;SDS011;62266;53.348;-1.496;2023-08-12T05:22:00;14.35;;;4.07;;
73919;SDS011;62266;53.348;-1.496;2023-08-12T05:24:45;17.00;;;4.57;;
73919;SDS011;62266;53.348;-1.496;2023-08-12T05:27:29;14.45;;;3.67;;
73919;SDS011;62266;53.348;-1.496;2023-08-12T05:30:13;12.80;;;3.80;;
73919;SDS011;62266;53.348;-1.496;2023-08-12T05:32:57;11.32;;;3.90;;
73919;SDS011;62266;53.348;-1.496;2023-08-12T05:35:41;17.23;;;3.90;;
73919;SDS011;62266;53.348;-1.496;2023-08-12T05:38:25;13.47;;;3.70;;
73919;SDS011;62266;53.348;-1.496;2023-08-12T05:41:09;15.02;;;4.15;;
73919;SDS011;62266;53.348;-1.496;2023-08-12T05:43:54;13.13;;;3.85;;
73919;SDS011;62266;53.348;-1.496;2023-08-12T05:46:38;18.50;;;4.32;;
73919;SDS011;62266;53.348;-1.496;2023-08-12T05:49:22;10.45;;;4.13;;
73919;SDS011;62266;53.348;-1.496;2023-08-12T05:52:07;13.47;;;3.80;;
73919;SDS011;62266;53.348;-1.496;2023-08-12T05:54:52;11.63;;;3.78;;
73919;SDS011;62266;53.348;-1.496;2023-08-12T05:57:36;13.50;;;3.80;;
73919;SDS011;62266;53.348;-1.496;2023-08-12T06:00:20;12.18;;;3.75;;
73919;SDS011;62266;53.348;-1.496;2023-08-12T06:03:04;11.00;;;3.50;;
73919;SDS011;62266;53.348;-1.496;2023-08-12T06:05:51;14.40;;;3.00;;
73919;SDS011;62266;53.348;-1.496;2023-08-12T06:08:35;13.35;;;3.55;;
73919;SDS011;62266;53.348;-1.496;2023-08-12T06:11:19;10.77;;;3.50;;
73919;SDS011;62266;53.348;-1.496;2023-08-12T06:14:03;12.05;;;3.40;;
73919;SDS011;62266;53.348;-1.496;2023-08-12T06:16:48;12.35;;;3.45;;
73919;SDS011;62266;53.348;-1.496;2023-08-12T06:19:32;7.93;;;3.43;;
73919;SDS011;62266;53.348;-1.496;2023-08-12T06:22:16;10.77;;;2.80;;
73919;SDS011;62266;53.348;-1.496;2023-08-12T06:25:00;10.50;;;3.03;;
73919;SDS011;62266;53.348;-1.496;2023-08-12T06:27:45;12.90;;;3.45;;
73919;SDS011;62266;53.348;-1.496;2023-08-12T06:30:29;9.57;;;2.90;;
73919;SDS011;62266;53.348;-1.496;2023-08-12T06:33:14;11.17;;;3.20;;
73919;SDS011;62266;53.348;-1.496;2023-08-12T06:35:58;12.48;;;3.22;;
73919;SDS011;62266;53.348;-1.496;2023-08-12T06:38:42;11.35;;;3.17;;
73919;SDS011;62266;53.348;-1.496;2023-08-12T06:41:26;11.85;;;3.15;;
73919;SDS011;62266;53.348;-1.496;2023-08-12T06:44:11;9.55;;;2.88;;
73919;SDS011;62266;53.348;-1.496;2023-08-12T06:46:55;13.37;;;3.73;;
73919;SDS011;62266;53.348;-1.496;2023-08-12T06:49:39;10.30;;;3.78;;
73919;SDS011;62266;53.348;-1.496;2023-08-12T06:52:23;9.75;;;3.55;;
73919;SDS011;62266;53.348;-1.496;2023-08-12T06:55:07;13.20;;;3.78;;
73919;SDS011;62266;53.348;-1.496;2023-08-12T06:57:52;10.93;;;3.63;;
73919;SDS011;62266;53.348;-1.496;2023-08-12T07:00:36;9.50;;;2.70;;
73919;SDS011;62266;53.348;-1.496;2023-08-12T07:03:20;11.18;;;3.28;;
73919;SDS011;62266;53.348;-1.496;2023-08-12T07:06:04;8.60;;;3.15;;
73919;SDS011;62266;53.348;-1.496;2023-08-12T07:08:48;9.02;;;2.60;;
73919;SDS011;62266;53.348;-1.496;2023-08-12T07:11:32;10.40;;;2.38;;
73919;SDS011;62266;53.348;-1.496;2023-08-12T07:14:16;5.00;;;1.80;;
73919;SDS011;62266;53.348;-1.496;2023-08-12T07:17:00;5.50;;;1.67;;
73919;SDS011;62266;53.348;-1.496;2023-08-12T07:19:44;4.82;;;1.65;;
73919;SDS011;62266;53.348;-1.496;2023-08-12T07:22:28;6.03;;;1.95;;
73919;SDS011;62266;53.348;-1.496;2023-08-12T07:25:12;4.50;;;1.33;;
73919;SDS011;62266;53.348;-1.496;2023-08-12T07:27:57;6.37;;;1.63;;
73919;SDS011;62266;53.348;-1.496;2023-08-12T07:30:41;5.28;;;1.65;;
73919;SDS011;62266;53.348;-1.496;2023-08-12T07:33:26;5.35;;;1.90;;
73919;SDS011;62266;53.348;-1.496;2023-08-12T07:36:10;7.88;;;2.08;;
73919;SDS011;62266;53.348;-1.496;2023-08-12T07:38:54;8.55;;;2.00;;
73919;SDS011;62266;53.348;-1.496;2023-08-12T07:41:38;6.30;;;2.10;;
73919;SDS011;62266;53.348;-1.496;2023-08-12T07:44:22;6.75;;;2.50;;
73919;SDS011;62266;53.348;-1.496;2023-08-12T07:47:06;7.72;;;3.20;;
73919;SDS011;62266;53.348;-1.496;2023-08-12T07:49:50;8.38;;;3.80;;
73919;SDS011;62266;53.348;-1.496;2023-08-12T07:52:34;8.57;;;3.65;;
73919;SDS011;62266;53.348;-1.496;2023-08-12T07:55:19;9.13;;;3.50;;
73919;SDS011;62266;53.348;-1.496;2023-08-12T07:58:03;8.10;;;3.63;;
73919;SDS011;62266;53.348;-1.496;2023-08-12T08:00:48;13.90;;;4.20;;
73919;SDS011;62266;53.348;-1.496;2023-08-12T08:03:32;11.93;;;4.47;;
73919;SDS011;62266;53.348;-1.496;2023-08-12T08:06:16;6.63;;;3.00;;
73919;SDS011;62266;53.348;-1.496;2023-08-12T08:09:00;8.00;;;2.63;;
73919;SDS011;62266;53.348;-1.496;2023-08-12T08:11:47;4.63;;;2.10;;
73919;SDS011;62266;53.348;-1.496;2023-08-12T08:14:31;6.20;;;2.40;;
73919;SDS011;62266;53.348;-1.496;2023-08-12T08:17:16;4.30;;;1.70;;
73919;SDS011;62266;53.348;-1.496;2023-08-12T08:20:00;3.13;;;1.60;;
73919;SDS011;62266;53.348;-1.496;2023-08-12T08:22:44;6.07;;;1.70;;
73919;SDS011;62266;53.348;-1.496;2023-08-12T08:25:29;4.15;;;2.03;;
73919;SDS011;62266;53.348;-1.496;2023-08-12T08:28:13;5.05;;;1.85;;
73919;SDS011;62266;53.348;-1.496;2023-08-12T08:30:57;6.93;;;2.17;;
73919;SDS011;62266;53.348;-1.496;2023-08-12T08:33:41;8.38;;;2.38;;
73919;SDS011;62266;53.348;-1.496;2023-08-12T08:36:26;8.00;;;2.20;;
73919;SDS011;62266;53.348;-1.496;2023-08-12T08:39:10;9.02;;;2.95;;
73919;SDS011;62266;53.348;-1.496;2023-08-12T08:41:54;8.15;;;2.67;;
73919;SDS011;62266;53.348;-1.496;2023-08-12T08:44:41;12.23;;;2.70;;
73919;SDS011;62266;53.348;-1.496;2023-08-12T08:47:26;10.90;;;2.97;;
73919;SDS011;62266;53.348;-1.496;2023-08-12T08:50:11;7.27;;;2.67;;
73919;SDS011;62266;53.348;-1.496;2023-08-12T08:52:56;9.75;;;3.00;;
73919;SDS011;62266;53.348;-1.496;2023-08-12T08:55:41;10.13;;;2.65;;
73919;SDS011;62266;53.348;-1.496;2023-08-12T08:58:25;9.15;;;2.35;;
73919;SDS011;62266;53.348;-1.496;2023-08-12T09:01:09;9.07;;;2.90;;
73919;SDS011;62266;53.348;-1.496;2023-08-12T09:03:54;8.03;;;2.43;;
73919;SDS011;62266;53.348;-1.496;2023-08-12T09:06:39;7.95;;;2.50;;
73919;SDS011;62266;53.348;-1.496;2023-08-12T09:09:24;6.07;;;2.22;;
73919;SDS011;62266;53.348;-1.496;2023-08-12T09:12:09;7.50;;;2.30;;
73919;SDS011;62266;53.348;-1.496;2023-08-12T09:14:57;9.80;;;2.20;;
73919;SDS011;62266;53.348;-1.496;2023-08-12T09:17:55;13.60;;;2.20;;
73919;SDS011;62266;53.348;-1.496;2023-08-12T09:20:39;9.23;;;2.10;;
73919;SDS011;62266;53.348;-1.496;2023-08-12T09:23:25;9.70;;;2.90;;
73919;SDS011;62266;53.348;-1.496;2023-08-12T09:26:17;11.52;;;2.90;;
73919;SDS011;62266;53.348;-1.496;2023-08-12T09:29:02;10.73;;;2.45;;
73919;SDS011;62266;53.348;-1.496;2023-08-12T09:31:47;10.70;;;2.67;;
73919;SDS011;62266;53.348;-1.496;2023-08-12T09:34:31;9.10;;;2.40;;
73919;SDS011;62266;53.348;-1.496;2023-08-12T09:37:15;11.25;;;2.67;;
73919;SDS011;62266;53.348;-1.496;2023-08-12T09:39:59;12.65;;;2.60;;
73919;SDS011;62266;53.348;-1.496;2023-08-12T09:42:44;8.27;;;2.45;;
73919;SDS011;62266;53.348;-1.496;2023-08-12T09:45:30;11.50;;;2.30;;
73919;SDS011;62266;53.348;-1.496;2023-08-12T09:48:16;7.63;;;2.30;;
73919;SDS011;62266;53.348;-1.496;2023-08-12T09:51:01;7.00;;;2.22;;
73919;SDS011;62266;53.348;-1.496;2023-08-12T09:53:47;7.93;;;1.88;;
73919;SDS011;62266;53.348;-1.496;2023-08-12T09:56:33;7.28;;;2.50;;
73919;SDS011;62266;53.348;-1.496;2023-08-12T09:59:21;9.83;;;2.70;;
73919;SDS011;62266;53.348;-1.496;2023-08-12T10:02:06;9.15;;;2.05;;
73919;SDS011;62266;53.348;-1.496;2023-08-12T10:04:53;8.30;;;2.38;;
73919;SDS011;62266;53.348;-1.496;2023-08-12T10:07:40;8.55;;;2.40;;
73919;SDS011;62266;53.348;-1.496;2023-08-12T10:10:24;10.02;;;2.30;;
73919;SDS011;62266;53.348;-1.496;2023-08-12T10:13:09;10.33;;;2.03;;
73919;SDS011;62266;53.348;-1.496;2023-08-12T10:15:54;9.30;;;2.17;;
73919;SDS011;62266;53.348;-1.496;2023-08-12T10:18:39;7.40;;;2.15;;
73919;SDS011;62266;53.348;-1.496;2023-08-12T10:21:24;7.32;;;2.58;;
73919;SDS011;62266;53.348;-1.496;2023-08-12T10:24:10;8.90;;;2.25;;
73919;SDS011;62266;53.348;-1.496;2023-08-12T10:26:55;9.37;;;2.63;;
73919;SDS011;62266;53.348;-1.496;2023-08-12T10:29:42;7.18;;;2.08;;
73919;SDS011;62266;53.348;-1.496;2023-08-12T10:32:26;12.77;;;2.10;;
73919;SDS011;62266;53.348;-1.496;2023-08-12T10:35:11;5.90;;;2.05;;
73919;SDS011;62266;53.348;-1.496;2023-08-12T10:37:56;8.40;;;2.13;;
73919;SDS011;62266;53.348;-1.496;2023-08-12T10:40:41;10.27;;;2.33;;
73919;SDS011;62266;53.348;-1.496;2023-08-12T10:43:26;9.68;;;2.78;;
73919;SDS011;62266;53.348;-1.496;2023-08-12T10:46:19;9.23;;;2.60;;
73919;SDS011;62266;53.348;-1.496;2023-08-12T10:49:09;10.75;;;2.33;;
73919;SDS011;62266;53.348;-1.496;2023-08-12T10:51:54;8.70;;;1.75;;
73919;SDS011;62266;53.348;-1.496;2023-08-12T10:54:38;7.53;;;2.03;;
73919;SDS011;62266;53.348;-1.496;2023-08-12T10:57:44;6.13;;;1.75;;
73919;SDS011;62266;53.348;-1.496;2023-08-12T11:00:29;10.18;;;2.15;;
73919;SDS011;62266;53.348;-1.496;2023-08-12T11:03:13;8.50;;;2.00;;
73919;SDS011;62266;53.348;-1.496;2023-08-12T11:05:57;9.88;;;1.70;;
73919;SDS011;62266;53.348;-1.496;2023-08-12T11:08:49;8.33;;;2.40;;
73919;SDS011;62266;53.348;-1.496;2023-08-12T11:11:35;7.40;;;1.80;;
73919;SDS011;62266;53.348;-1.496;2023-08-12T11:14:19;7.15;;;1.85;;
73919;SDS011;62266;53.348;-1.496;2023-08-12T11:17:16;11.73;;;4.72;;
73919;SDS011;62266;53.348;-1.496;2023-08-12T11:20:00;10.00;;;3.17;;
73919;SDS011;62266;53.348;-1.496;2023-08-12T11:22:47;10.27;;;2.67;;
73919;SDS011;62266;53.348;-1.496;2023-08-12T11:25:32;10.02;;;3.15;;
73919;SDS011;62266;53.348;-1.496;2023-08-12T11:28:18;8.45;;;2.35;;
73919;SDS011;62266;53.348;-1.496;2023-08-12T11:31:05;5.78;;;2.13;;
73919;SDS011;62266;53.348;-1.496;2023-08-12T11:33:49;6.57;;;1.95;;
73919;SDS011;62266;53.348;-1.496;2023-08-12T11:36:33;6.37;;;1.97;;
73919;SDS011;62266;53.348;-1.496;2023-08-12T11:39:17;7.07;;;1.83;;
73919;SDS011;62266;53.348;-1.496;2023-08-12T11:42:01;6.38;;;1.67;;
73919;SDS011;62266;53.348;-1.496;2023-08-12T11:44:45;5.75;;;1.58;;
73919;SDS011;62266;53.348;-1.496;2023-08-12T11:47:29;5.15;;;1.30;;
73919;SDS011;62266;53.348;-1.496;2023-08-12T11:50:13;11.03;;;4.00;;
73919;SDS011;62266;53.348;-1.496;2023-08-12T11:52:57;5.60;;;1.70;;
73919;SDS011;62266;53.348;-1.496;2023-08-12T11:55:42;4.82;;;1.50;;
73919;SDS011;62266;53.348;-1.496;2023-08-12T11:58:26;5.50;;;1.10;;
73919;SDS011;62266;53.348;-1.496;2023-08-12T12:01:20;2.58;;;0.80;;
73919;SDS011;62266;53.348;-1.496;2023-08-12T12:04:04;4.57;;;1.20;;
73919;SDS011;62266;53.348;-1.496;2023-08-12T12:06:49;8.77;;;3.65;;
73919;SDS011;62266;53.348;-1.496;2023-08-12T12:09:33;4.28;;;1.63;;
73919;SDS011;62266;53.348;-1.496;2023-08-12T12:12:17;4.28;;;1.67;;
73919;SDS011;62266;53.348;-1.496;2023-08-12T12:17:50;7.47;;;2.40;;
73919;SDS011;62266;53.348;-1.496;2023-08-12T12:20:34;6.30;;;2.10;;
73919;SDS011;62266;53.348;-1.496;2023-08-12T12:23:19;5.20;;;1.60;;
73919;SDS011;62266;53.348;-1.496;2023-08-12T12:26:03;7.22;;;2.10;;
73919;SDS011;62266;53.348;-1.496;2023-08-12T12:28:47;4.53;;;1.40;;
73919;SDS011;62266;53.348;-1.496;2023-08-12T12:31:32;3.57;;;1.50;;
73919;SDS011;62266;53.348;-1.496;2023-08-12T12:34:18;4.97;;;1.30;;
73919;SDS011;62266;53.348;-1.496;2023-08-12T12:37:02;5.45;;;1.40;;
73919;SDS011;62266;53.348;-1.496;2023-08-12T12:39:46;3.92;;;1.27;;
73919;SDS011;62266;53.348;-1.496;2023-08-12T12:42:31;6.10;;;1.38;;
73919;SDS011;62266;53.348;-1.496;2023-08-12T12:45:15;2.77;;;1.03;;
73919;SDS011;62266;53.348;-1.496;2023-08-12T12:47:59;4.28;;;1.23;;
73919;SDS011;62266;53.348;-1.496;2023-08-12T12:50:43;2.45;;;0.88;;
73919;SDS011;62266;53.348;-1.496;2023-08-12T12:53:27;4.07;;;1.60;;
73919;SDS011;62266;53.348;-1.496;2023-08-12T12:56:11;2.15;;;1.30;;
73919;SDS011;62266;53.348;-1.496;2023-08-12T12:59:04;3.00;;;1.20;;
73919;SDS011;62266;53.348;-1.496;2023-08-12T13:01:49;1.85;;;0.70;;
73919;SDS011;62266;53.348;-1.496;2023-08-12T13:04:33;4.30;;;1.35;;
73919;SDS011;62266;53.348;-1.496;2023-08-12T13:07:17;7.35;;;1.10;;
73919;SDS011;62266;53.348;-1.496;2023-08-12T13:10:01;5.57;;;1.02;;
73919;SDS011;62266;53.348;-1.496;2023-08-12T13:12:48;2.77;;;0.70;;
73919;SDS011;62266;53.348;-1.496;2023-08-12T13:15:37;3.35;;;0.80;;
73919;SDS011;62266;53.348;-1.496;2023-08-12T13:18:23;2.65;;;1.25;;
73919;SDS011;62266;53.348;-1.496;2023-08-12T13:21:07;3.47;;;1.00;;
73919;SDS011;62266;53.348;-1.496;2023-08-12T13:23:52;2.72;;;0.90;;
73919;SDS011;62266;53.348;-1.496;2023-08-12T13:26:36;3.63;;;0.90;;
73919;SDS011;62266;53.348;-1.496;2023-08-12T13:29:20;5.32;;;1.00;;
73919;SDS011;62266;53.348;-1.496;2023-08-12T13:32:05;3.67;;;1.20;;
73919;SDS011;62266;53.348;-1.496;2023-08-12T13:34:49;2.97;;;0.80;;
73919;SDS011;62266;53.348;-1.496;2023-08-12T13:37:33;2.25;;;0.50;;
73919;SDS011;62266;53.348;-1.496;2023-08-12T13:40:17;2.70;;;0.80;;
73919;SDS011;62266;53.348;-1.496;2023-08-12T13:43:02;2.08;;;0.80;;
73919;SDS011;62266;53.348;-1.496;2023-08-12T13:45:47;1.80;;;0.60;;
73919;SDS011;62266;53.348;-1.496;2023-08-12T13:48:31;4.18;;;0.88;;
73919;SDS011;62266;53.348;-1.496;2023-08-12T13:51:15;2.47;;;0.65;;
73919;SDS011;62266;53.348;-1.496;2023-08-12T13:54:00;1.53;;;0.40;;
73919;SDS011;62266;53.348;-1.496;2023-08-12T13:56:44;1.27;;;0.40;;
73919;SDS011;62266;53.348;-1.496;2023-08-12T13:59:28;1.08;;;0.40;;
73919;SDS011;62266;53.348;-1.496;2023-08-12T14:02:12;3.00;;;0.68;;
73919;SDS011;62266;53.348;-1.496;2023-08-12T14:04:57;1.63;;;0.55;;
73919;SDS011;62266;53.348;-1.496;2023-08-12T14:07:42;1.53;;;0.50;;
73919;SDS011;62266;53.348;-1.496;2023-08-12T14:10:26;1.67;;;0.50;;
73919;SDS011;62266;53.348;-1.496;2023-08-12T14:13:10;1.17;;;0.40;;
73919;SDS011;62266;53.348;-1.496;2023-08-12T14:15:54;0.47;;;0.30;;
73919;SDS011;62266;53.348;-1.496;2023-08-12T14:18:38;3.30;;;0.70;;
73919;SDS011;62266;53.348;-1.496;2023-08-12T14:21:22;2.27;;;0.40;;
73919;SDS011;62266;53.348;-1.496;2023-08-12T14:24:06;2.45;;;0.30;;
73919;SDS011;62266;53.348;-1.496;2023-08-12T14:26:51;1.65;;;0.43;;
73919;SDS011;62266;53.348;-1.496;2023-08-12T14:29:35;1.63;;;0.30;;
73919;SDS011;62266;53.348;-1.496;2023-08-12T14:32:19;1.40;;;0.50;;
73919;SDS011;62266;53.348;-1.496;2023-08-12T14:35:03;0.90;;;0.40;;
73919;SDS011;62266;53.348;-1.496;2023-08-12T14:37:49;1.75;;;0.45;;
73919;SDS011;62266;53.348;-1.496;2023-08-12T14:40:33;2.05;;;0.60;;
73919;SDS011;62266;53.348;-1.496;2023-08-12T14:43:17;1.20;;;0.50;;
73919;SDS011;62266;53.348;-1.496;2023-08-12T14:46:02;1.88;;;0.40;;
73919;SDS011;62266;53.348;-1.496;2023-08-12T14:48:46;1.30;;;0.30;;
73919;SDS011;62266;53.348;-1.496;2023-08-12T14:51:30;1.35;;;0.40;;
73919;SDS011;62266;53.348;-1.496;2023-08-12T14:54:15;0.98;;;0.40;;
73919;SDS011;62266;53.348;-1.496;2023-08-12T14:56:59;1.95;;;0.55;;
73919;SDS011;62266;53.348;-1.496;2023-08-12T14:59:43;1.55;;;0.43;;
73919;SDS011;62266;53.348;-1.496;2023-08-12T15:02:27;1.03;;;0.40;;
73919;SDS011;62266;53.348;-1.496;2023-08-12T15:05:11;1.80;;;0.50;;
73919;SDS011;62266;53.348;-1.496;2023-08-12T15:07:56;0.82;;;0.30;;
73919;SDS011;62266;53.348;-1.496;2023-08-12T15:10:41;3.20;;;0.70;;
73919;SDS011;62266;53.348;-1.496;2023-08-12T15:13:25;1.60;;;0.57;;
73919;SDS011;62266;53.348;-1.496;2023-08-12T15:16:09;1.40;;;0.50;;
73919;SDS011;62266;53.348;-1.496;2023-08-12T15:18:55;0.95;;;0.35;;
73919;SDS011;62266;53.348;-1.496;2023-08-12T15:21:39;0.98;;;0.50;;
73919;SDS011;62266;53.348;-1.496;2023-08-12T15:24:24;1.42;;;0.47;;
73919;SDS011;62266;53.348;-1.496;2023-08-12T15:27:08;0.80;;;0.20;;
73919;SDS011;62266;53.348;-1.496;2023-08-12T15:29:52;1.13;;;0.50;;
73919;SDS011;62266;53.348;-1.496;2023-08-12T15:32:37;1.17;;;0.40;;
73919;SDS011;62266;53.348;-1.496;2023-08-12T15:35:22;1.73;;;0.32;;
73919;SDS011;62266;53.348;-1.496;2023-08-12T15:38:07;1.30;;;0.30;;
73919;SDS011;62266;53.348;-1.496;2023-08-12T15:40:51;0.85;;;0.43;;
73919;SDS011;62266;53.348;-1.496;2023-08-12T15:43:35;1.40;;;0.30;;
73919;SDS011;62266;53.348;-1.496;2023-08-12T15:46:19;2.30;;;0.32;;
73919;SDS011;62266;53.348;-1.496;2023-08-12T15:49:04;2.10;;;0.50;;
73919;SDS011;62266;53.348;-1.496;2023-08-12T15:51:54;2.67;;;1.20;;
73919;SDS011;62266;53.348;-1.496;2023-08-12T15:54:38;2.15;;;1.35;;
73919;SDS011;62266;53.348;-1.496;2023-08-12T15:57:22;1.37;;;0.30;;
73919;SDS011;62266;53.348;-1.496;2023-08-12T16:00:06;0.85;;;0.20;;
73919;SDS011;62266;53.348;-1.496;2023-08-12T16:02:51;2.22;;;0.28;;
73919;SDS011;62266;53.348;-1.496;2023-08-12T16:05:36;0.85;;;0.13;;
73919;SDS011;62266;53.348;-1.496;2023-08-12T16:08:22;1.20;;;0.35;;
73919;SDS011;62266;53.348;-1.496;2023-08-12T16:11:07;3.20;;;0.50;;
73919;SDS011;62266;53.348;-1.496;2023-08-12T16:13:55;0.90;;;0.40;;
73919;SDS011;62266;53.348;-1.496;2023-08-12T16:16:40;1.27;;;0.60;;
73919;SDS011;62266;53.348;-1.496;2023-08-12T16:19:25;0.98;;;0.50;;